sensor_id;sensor_type;location;lat;lon;timestamp;P1;durP1;ratioP1;P2;durP2;ratioP2
62572;SDS011;48626;51.678;5.806;2022-10-16T00:01:19;8.52;;;4.20;;
62572;SDS011;48626;51.678;5.806;2022-10-16T00:03:46;9.48;;;4.88;;
62572;SDS011;48626;51.678;5.806;2022-10-16T00:06:13;7.43;;;4.00;;
62572;SDS011;48626;51.678;5.806;2022-10-16T00:08:41;8.43;;;4.30;;
62572;SDS011;48626;51.678;5.806;2022-10-16T00:11:14;12.65;;;4.32;;
62572;SDS011;48626;51.678;5.806;2022-10-16T00:13:42;12.57;;;4.63;;
62572;SDS011;48626;51.678;5.806;2022-10-16T00:16:10;8.45;;;4.38;;
62572;SDS011;48626;51.678;5.806;2022-10-16T00:18:37;7.65;;;4.40;;
62572;SDS011;48626;51.678;5.806;2022-10-16T00:21:07;6.00;;;4.05;;
62572;SDS011;48626;51.678;5.806;2022-10-16T00:23:44;8.48;;;4.43;;
62572;SDS011;48626;51.678;5.806;2022-10-16T00:26:11;8.27;;;3.85;;
62572;SDS011;48626;51.678;5.806;2022-10-16T00:28:39;6.63;;;3.85;;
62572;SDS011;48626;51.678;5.806;2022-10-16T00:31:06;9.25;;;4.30;;
62572;SDS011;48626;51.678;5.806;2022-10-16T00:33:33;6.72;;;3.80;;
62572;SDS011;48626;51.678;5.806;2022-10-16T00:35:59;6.60;;;4.07;;
62572;SDS011;48626;51.678;5.806;2022-10-16T00:38:26;9.63;;;4.10;;
62572;SDS011;48626;51.678;5.806;2022-10-16T00:40:52;7.55;;;3.67;;
62572;SDS011;48626;51.678;5.806;2022-10-16T00:43:34;9.48;;;4.20;;
62572;SDS011;48626;51.678;5.806;2022-10-16T00:46:11;7.88;;;3.92;;
62572;SDS011;48626;51.678;5.806;2022-10-16T00:48:57;9.63;;;4.25;;
62572;SDS011;48626;51.678;5.806;2022-10-16T00:51:30;7.50;;;4.25;;
62572;SDS011;48626;51.678;5.806;2022-10-16T00:54:02;8.07;;;3.42;;
62572;SDS011;48626;51.678;5.806;2022-10-16T00:56:29;10.68;;;3.78;;
62572;SDS011;48626;51.678;5.806;2022-10-16T00:58:56;6.93;;;3.60;;
62572;SDS011;48626;51.678;5.806;2022-10-16T01:01:23;10.75;;;4.18;;
62572;SDS011;48626;51.678;5.806;2022-10-16T01:03:49;5.32;;;3.15;;
62572;SDS011;48626;51.678;5.806;2022-10-16T01:12:06;5.85;;;3.65;;
62572;SDS011;48626;51.678;5.806;2022-10-16T01:14:27;8.73;;;3.65;;
62572;SDS011;48626;51.678;5.806;2022-10-16T01:17:17;6.78;;;3.22;;
62572;SDS011;48626;51.678;5.806;2022-10-16T01:22:21;8.80;;;3.95;;
62572;SDS011;48626;51.678;5.806;2022-10-16T01:24:54;5.13;;;3.20;;
62572;SDS011;48626;51.678;5.806;2022-10-16T01:27:25;4.50;;;2.88;;
62572;SDS011;48626;51.678;5.806;2022-10-16T01:35:19;7.85;;;3.60;;
62572;SDS011;48626;51.678;5.806;2022-10-16T01:37:48;5.80;;;3.10;;
62572;SDS011;48626;51.678;5.806;2022-10-16T01:40:28;6.47;;;3.70;;
62572;SDS011;48626;51.678;5.806;2022-10-16T01:43:01;4.97;;;3.30;;
62572;SDS011;48626;51.678;5.806;2022-10-16T01:45:31;8.73;;;3.42;;
62572;SDS011;48626;51.678;5.806;2022-10-16T01:48:00;7.47;;;3.22;;
62572;SDS011;48626;51.678;5.806;2022-10-16T01:50:29;5.88;;;3.13;;
62572;SDS011;48626;51.678;5.806;2022-10-16T01:52:59;6.32;;;2.92;;
62572;SDS011;48626;51.678;5.806;2022-10-16T01:55:29;5.00;;;2.90;;
62572;SDS011;48626;51.678;5.806;2022-10-16T01:57:58;4.68;;;2.90;;
62572;SDS011;48626;51.678;5.806;2022-10-16T02:00:26;6.05;;;3.17;;
62572;SDS011;48626;51.678;5.806;2022-10-16T02:02:54;4.28;;;2.83;;
62572;SDS011;48626;51.678;5.806;2022-10-16T02:07:52;6.07;;;3.10;;
62572;SDS011;48626;51.678;5.806;2022-10-16T02:10:17;5.88;;;3.15;;
62572;SDS011;48626;51.678;5.806;2022-10-16T02:12:56;7.35;;;3.00;;
62572;SDS011;48626;51.678;5.806;2022-10-16T02:15:33;7.07;;;2.90;;
62572;SDS011;48626;51.678;5.806;2022-10-16T02:18:00;4.25;;;3.13;;
62572;SDS011;48626;51.678;5.806;2022-10-16T02:20:28;8.68;;;3.42;;
62572;SDS011;48626;51.678;5.806;2022-10-16T02:22:57;8.30;;;3.17;;
62572;SDS011;48626;51.678;5.806;2022-10-16T02:25:27;4.60;;;3.22;;
62572;SDS011;48626;51.678;5.806;2022-10-16T02:30:42;9.98;;;3.28;;
62572;SDS011;48626;51.678;5.806;2022-10-16T02:33:15;6.32;;;2.72;;
62572;SDS011;48626;51.678;5.806;2022-10-16T02:35:42;5.30;;;2.83;;
62572;SDS011;48626;51.678;5.806;2022-10-16T02:38:11;6.13;;;3.00;;
62572;SDS011;48626;51.678;5.806;2022-10-16T02:40:39;7.28;;;3.05;;
62572;SDS011;48626;51.678;5.806;2022-10-16T02:43:06;5.68;;;3.28;;
62572;SDS011;48626;51.678;5.806;2022-10-16T02:45:32;5.30;;;2.70;;
62572;SDS011;48626;51.678;5.806;2022-10-16T02:47:58;5.60;;;3.17;;
62572;SDS011;48626;51.678;5.806;2022-10-16T02:50:23;4.93;;;3.20;;
62572;SDS011;48626;51.678;5.806;2022-10-16T02:52:50;4.93;;;2.97;;
62572;SDS011;48626;51.678;5.806;2022-10-16T02:55:16;8.45;;;3.00;;
62572;SDS011;48626;51.678;5.806;2022-10-16T02:57:41;4.68;;;3.05;;
62572;SDS011;48626;51.678;5.806;2022-10-16T03:00:08;4.93;;;2.80;;
62572;SDS011;48626;51.678;5.806;2022-10-16T03:02:36;4.28;;;2.92;;
62572;SDS011;48626;51.678;5.806;2022-10-16T03:05:01;3.13;;;2.58;;
62572;SDS011;48626;51.678;5.806;2022-10-16T03:07:27;5.75;;;3.00;;
62572;SDS011;48626;51.678;5.806;2022-10-16T03:09:53;9.63;;;3.13;;
62572;SDS011;48626;51.678;5.806;2022-10-16T03:12:20;5.65;;;2.78;;
62572;SDS011;48626;51.678;5.806;2022-10-16T03:14:46;8.52;;;2.90;;
62572;SDS011;48626;51.678;5.806;2022-10-16T03:17:12;4.97;;;3.20;;
62572;SDS011;48626;51.678;5.806;2022-10-16T03:19:38;6.07;;;3.10;;
62572;SDS011;48626;51.678;5.806;2022-10-16T03:22:03;4.45;;;2.80;;
62572;SDS011;48626;51.678;5.806;2022-10-16T03:24:29;3.90;;;2.47;;
62572;SDS011;48626;51.678;5.806;2022-10-16T03:26:55;6.85;;;2.85;;
62572;SDS011;48626;51.678;5.806;2022-10-16T03:29:20;4.10;;;2.90;;
62572;SDS011;48626;51.678;5.806;2022-10-16T03:31:46;8.52;;;2.80;;
62572;SDS011;48626;51.678;5.806;2022-10-16T03:34:13;5.28;;;3.13;;
62572;SDS011;48626;51.678;5.806;2022-10-16T03:36:39;4.72;;;2.70;;
62572;SDS011;48626;51.678;5.806;2022-10-16T03:39:04;5.40;;;2.78;;
62572;SDS011;48626;51.678;5.806;2022-10-16T03:41:30;4.60;;;2.80;;
62572;SDS011;48626;51.678;5.806;2022-10-16T03:43:56;6.05;;;2.95;;
62572;SDS011;48626;51.678;5.806;2022-10-16T03:46:21;5.80;;;2.80;;
62572;SDS011;48626;51.678;5.806;2022-10-16T03:48:47;12.45;;;3.10;;
62572;SDS011;48626;51.678;5.806;2022-10-16T03:51:12;7.82;;;3.30;;
62572;SDS011;48626;51.678;5.806;2022-10-16T03:53:38;7.30;;;2.75;;
62572;SDS011;48626;51.678;5.806;2022-10-16T03:56:04;4.47;;;2.85;;
62572;SDS011;48626;51.678;5.806;2022-10-16T03:58:30;3.85;;;2.92;;
62572;SDS011;48626;51.678;5.806;2022-10-16T04:00:55;3.97;;;2.70;;
62572;SDS011;48626;51.678;5.806;2022-10-16T04:03:21;4.93;;;2.85;;
62572;SDS011;48626;51.678;5.806;2022-10-16T04:05:47;6.18;;;2.90;;
62572;SDS011;48626;51.678;5.806;2022-10-16T04:08:14;4.28;;;2.80;;
62572;SDS011;48626;51.678;5.806;2022-10-16T04:10:39;5.65;;;2.80;;
62572;SDS011;48626;51.678;5.806;2022-10-16T04:13:08;6.88;;;2.85;;
62572;SDS011;48626;51.678;5.806;2022-10-16T04:15:34;4.07;;;2.97;;
62572;SDS011;48626;51.678;5.806;2022-10-16T04:18:00;5.93;;;2.80;;
62572;SDS011;48626;51.678;5.806;2022-10-16T04:20:25;6.55;;;2.90;;
62572;SDS011;48626;51.678;5.806;2022-10-16T04:22:51;6.22;;;2.72;;
62572;SDS011;48626;51.678;5.806;2022-10-16T04:25:17;4.88;;;2.80;;
62572;SDS011;48626;51.678;5.806;2022-10-16T04:27:42;4.80;;;2.78;;
62572;SDS011;48626;51.678;5.806;2022-10-16T04:30:08;4.68;;;2.97;;
62572;SDS011;48626;51.678;5.806;2022-10-16T04:32:34;4.22;;;2.50;;
62572;SDS011;48626;51.678;5.806;2022-10-16T04:34:59;5.80;;;2.75;;
62572;SDS011;48626;51.678;5.806;2022-10-16T04:37:25;6.82;;;3.58;;
62572;SDS011;48626;51.678;5.806;2022-10-16T04:39:52;5.50;;;2.65;;
62572;SDS011;48626;51.678;5.806;2022-10-16T04:42:18;4.93;;;2.50;;
62572;SDS011;48626;51.678;5.806;2022-10-16T04:44:44;7.20;;;2.85;;
62572;SDS011;48626;51.678;5.806;2022-10-16T04:47:10;4.93;;;3.03;;
62572;SDS011;48626;51.678;5.806;2022-10-16T04:49:35;5.15;;;2.80;;
62572;SDS011;48626;51.678;5.806;2022-10-16T04:52:01;7.18;;;2.42;;
62572;SDS011;48626;51.678;5.806;2022-10-16T04:54:27;5.28;;;2.90;;
62572;SDS011;48626;51.678;5.806;2022-10-16T04:56:53;4.82;;;2.80;;
62572;SDS011;48626;51.678;5.806;2022-10-16T04:59:19;5.55;;;2.67;;
62572;SDS011;48626;51.678;5.806;2022-10-16T05:01:45;3.75;;;2.55;;
62572;SDS011;48626;51.678;5.806;2022-10-16T05:04:11;8.07;;;2.83;;
62572;SDS011;48626;51.678;5.806;2022-10-16T05:06:37;7.43;;;2.90;;
62572;SDS011;48626;51.678;5.806;2022-10-16T05:09:04;5.28;;;2.78;;
62572;SDS011;48626;51.678;5.806;2022-10-16T05:11:30;5.10;;;2.70;;
62572;SDS011;48626;51.678;5.806;2022-10-16T05:13:56;11.80;;;3.22;;
62572;SDS011;48626;51.678;5.806;2022-10-16T05:16:28;3.83;;;2.60;;
62572;SDS011;48626;51.678;5.806;2022-10-16T05:18:55;6.45;;;3.10;;
62572;SDS011;48626;51.678;5.806;2022-10-16T05:21:21;6.32;;;2.90;;
62572;SDS011;48626;51.678;5.806;2022-10-16T05:23:47;8.35;;;3.10;;
62572;SDS011;48626;51.678;5.806;2022-10-16T05:26:13;5.03;;;2.72;;
62572;SDS011;48626;51.678;5.806;2022-10-16T05:28:39;7.85;;;3.03;;
62572;SDS011;48626;51.678;5.806;2022-10-16T05:31:08;5.70;;;2.88;;
62572;SDS011;48626;51.678;5.806;2022-10-16T05:33:34;4.30;;;2.78;;
62572;SDS011;48626;51.678;5.806;2022-10-16T05:36:01;9.98;;;2.95;;
62572;SDS011;48626;51.678;5.806;2022-10-16T05:38:28;6.57;;;2.97;;
62572;SDS011;48626;51.678;5.806;2022-10-16T05:40:53;4.78;;;2.90;;
62572;SDS011;48626;51.678;5.806;2022-10-16T05:43:19;5.63;;;2.55;;
62572;SDS011;48626;51.678;5.806;2022-10-16T05:45:53;4.93;;;3.05;;
62572;SDS011;48626;51.678;5.806;2022-10-16T05:48:28;5.82;;;2.88;;
62572;SDS011;48626;51.678;5.806;2022-10-16T05:50:58;5.65;;;3.17;;
62572;SDS011;48626;51.678;5.806;2022-10-16T05:53:29;6.85;;;2.75;;
62572;SDS011;48626;51.678;5.806;2022-10-16T05:55:56;4.65;;;2.78;;
62572;SDS011;48626;51.678;5.806;2022-10-16T05:58:22;6.15;;;2.90;;
62572;SDS011;48626;51.678;5.806;2022-10-16T06:00:55;6.82;;;3.08;;
62572;SDS011;48626;51.678;5.806;2022-10-16T06:03:22;5.68;;;3.20;;
62572;SDS011;48626;51.678;5.806;2022-10-16T06:05:48;9.27;;;3.10;;
62572;SDS011;48626;51.678;5.806;2022-10-16T06:08:13;11.00;;;2.85;;
62572;SDS011;48626;51.678;5.806;2022-10-16T06:10:39;4.38;;;2.70;;
62572;SDS011;48626;51.678;5.806;2022-10-16T06:13:05;5.72;;;3.10;;
62572;SDS011;48626;51.678;5.806;2022-10-16T06:15:30;8.18;;;3.00;;
62572;SDS011;48626;51.678;5.806;2022-10-16T06:17:56;6.65;;;2.90;;
62572;SDS011;48626;51.678;5.806;2022-10-16T06:20:22;9.50;;;2.80;;
62572;SDS011;48626;51.678;5.806;2022-10-16T06:22:47;5.72;;;3.03;;
62572;SDS011;48626;51.678;5.806;2022-10-16T06:25:13;8.30;;;3.10;;
62572;SDS011;48626;51.678;5.806;2022-10-16T06:27:39;6.82;;;3.03;;
62572;SDS011;48626;51.678;5.806;2022-10-16T06:30:06;5.65;;;2.80;;
62572;SDS011;48626;51.678;5.806;2022-10-16T06:32:32;5.93;;;2.95;;
62572;SDS011;48626;51.678;5.806;2022-10-16T06:34:58;7.40;;;3.03;;
62572;SDS011;48626;51.678;5.806;2022-10-16T06:37:23;5.45;;;3.03;;
62572;SDS011;48626;51.678;5.806;2022-10-16T06:39:50;8.65;;;2.85;;
62572;SDS011;48626;51.678;5.806;2022-10-16T06:42:17;5.93;;;3.00;;
62572;SDS011;48626;51.678;5.806;2022-10-16T06:44:43;7.05;;;2.78;;
62572;SDS011;48626;51.678;5.806;2022-10-16T06:47:09;5.72;;;2.65;;
62572;SDS011;48626;51.678;5.806;2022-10-16T06:49:35;7.65;;;3.17;;
62572;SDS011;48626;51.678;5.806;2022-10-16T06:52:00;5.72;;;3.22;;
62572;SDS011;48626;51.678;5.806;2022-10-16T06:54:27;10.30;;;3.63;;
62572;SDS011;48626;51.678;5.806;2022-10-16T06:56:53;5.68;;;3.25;;
62572;SDS011;48626;51.678;5.806;2022-10-16T06:59:19;6.22;;;3.40;;
62572;SDS011;48626;51.678;5.806;2022-10-16T07:01:45;6.05;;;3.28;;
62572;SDS011;48626;51.678;5.806;2022-10-16T07:04:11;6.63;;;3.50;;
62572;SDS011;48626;51.678;5.806;2022-10-16T07:06:37;5.50;;;3.25;;
62572;SDS011;48626;51.678;5.806;2022-10-16T07:09:04;9.10;;;4.07;;
62572;SDS011;48626;51.678;5.806;2022-10-16T07:11:31;12.32;;;3.45;;
62572;SDS011;48626;51.678;5.806;2022-10-16T07:13:57;9.85;;;3.40;;
62572;SDS011;48626;51.678;5.806;2022-10-16T07:16:27;8.52;;;3.72;;
62572;SDS011;48626;51.678;5.806;2022-10-16T07:18:55;5.82;;;3.55;;
62572;SDS011;48626;51.678;5.806;2022-10-16T07:21:25;9.63;;;3.95;;
62572;SDS011;48626;51.678;5.806;2022-10-16T07:23:54;7.13;;;3.67;;
62572;SDS011;48626;51.678;5.806;2022-10-16T07:26:26;6.45;;;3.85;;
62572;SDS011;48626;51.678;5.806;2022-10-16T07:28:53;8.93;;;3.85;;
62572;SDS011;48626;51.678;5.806;2022-10-16T07:31:19;7.55;;;3.67;;
62572;SDS011;48626;51.678;5.806;2022-10-16T07:33:46;6.82;;;3.58;;
62572;SDS011;48626;51.678;5.806;2022-10-16T07:36:13;9.80;;;3.55;;
62572;SDS011;48626;51.678;5.806;2022-10-16T07:41:11;6.35;;;3.38;;
62572;SDS011;48626;51.678;5.806;2022-10-16T07:43:38;8.73;;;3.55;;
62572;SDS011;48626;51.678;5.806;2022-10-16T07:46:03;7.57;;;3.22;;
62572;SDS011;48626;51.678;5.806;2022-10-16T07:48:30;7.53;;;3.00;;
62572;SDS011;48626;51.678;5.806;2022-10-16T07:51:01;9.27;;;3.70;;
62572;SDS011;48626;51.678;5.806;2022-10-16T07:53:29;6.20;;;3.10;;
62572;SDS011;48626;51.678;5.806;2022-10-16T07:55:58;5.05;;;2.92;;
62572;SDS011;48626;51.678;5.806;2022-10-16T07:58:25;7.90;;;3.50;;
62572;SDS011;48626;51.678;5.806;2022-10-16T08:00:51;5.93;;;3.17;;
62572;SDS011;48626;51.678;5.806;2022-10-16T08:03:17;9.60;;;3.60;;
62572;SDS011;48626;51.678;5.806;2022-10-16T08:05:42;6.55;;;3.33;;
62572;SDS011;48626;51.678;5.806;2022-10-16T08:08:11;6.65;;;3.60;;
62572;SDS011;48626;51.678;5.806;2022-10-16T08:10:38;6.43;;;3.33;;
62572;SDS011;48626;51.678;5.806;2022-10-16T08:13:04;5.13;;;3.00;;
62572;SDS011;48626;51.678;5.806;2022-10-16T08:15:29;7.50;;;3.35;;
62572;SDS011;48626;51.678;5.806;2022-10-16T08:17:59;9.95;;;3.42;;
62572;SDS011;48626;51.678;5.806;2022-10-16T08:20:26;8.13;;;3.40;;
62572;SDS011;48626;51.678;5.806;2022-10-16T08:22:52;8.15;;;3.40;;
62572;SDS011;48626;51.678;5.806;2022-10-16T08:25:19;7.38;;;3.63;;
62572;SDS011;48626;51.678;5.806;2022-10-16T08:27:45;10.80;;;4.00;;
62572;SDS011;48626;51.678;5.806;2022-10-16T08:30:11;6.28;;;3.20;;
62572;SDS011;48626;51.678;5.806;2022-10-16T08:32:37;10.02;;;3.42;;
62572;SDS011;48626;51.678;5.806;2022-10-16T08:35:02;7.97;;;3.20;;
62572;SDS011;48626;51.678;5.806;2022-10-16T08:37:31;6.15;;;3.55;;
62572;SDS011;48626;51.678;5.806;2022-10-16T08:39:58;8.97;;;3.27;;
62572;SDS011;48626;51.678;5.806;2022-10-16T08:42:29;12.55;;;3.58;;
62572;SDS011;48626;51.678;5.806;2022-10-16T08:48:06;6.50;;;3.00;;
62572;SDS011;48626;51.678;5.806;2022-10-16T08:50:40;10.40;;;3.40;;
62572;SDS011;48626;51.678;5.806;2022-10-16T08:53:06;6.40;;;3.00;;
62572;SDS011;48626;51.678;5.806;2022-10-16T08:55:46;8.35;;;2.83;;
62572;SDS011;48626;51.678;5.806;2022-10-16T08:58:18;6.13;;;3.10;;
62572;SDS011;48626;51.678;5.806;2022-10-16T09:01:04;8.77;;;2.92;;
62572;SDS011;48626;51.678;5.806;2022-10-16T09:09:04;7.00;;;3.05;;
62572;SDS011;48626;51.678;5.806;2022-10-16T09:11:44;7.25;;;3.50;;
62572;SDS011;48626;51.678;5.806;2022-10-16T09:16:53;15.57;;;3.90;;
62572;SDS011;48626;51.678;5.806;2022-10-16T09:22:38;7.47;;;2.97;;
62572;SDS011;48626;51.678;5.806;2022-10-16T09:25:11;10.82;;;3.00;;
62572;SDS011;48626;51.678;5.806;2022-10-16T09:27:45;11.20;;;3.30;;
62572;SDS011;48626;51.678;5.806;2022-10-16T09:30:17;7.30;;;3.10;;
62572;SDS011;48626;51.678;5.806;2022-10-16T09:32:45;6.90;;;3.22;;
62572;SDS011;48626;51.678;5.806;2022-10-16T09:35:18;8.75;;;3.10;;
62572;SDS011;48626;51.678;5.806;2022-10-16T09:37:47;11.15;;;2.97;;
62572;SDS011;48626;51.678;5.806;2022-10-16T09:43:19;6.63;;;3.03;;
62572;SDS011;48626;51.678;5.806;2022-10-16T09:45:57;12.43;;;3.35;;
62572;SDS011;48626;51.678;5.806;2022-10-16T09:48:25;9.93;;;2.95;;
62572;SDS011;48626;51.678;5.806;2022-10-16T09:50:56;8.95;;;2.70;;
62572;SDS011;48626;51.678;5.806;2022-10-16T09:53:23;7.03;;;2.80;;
62572;SDS011;48626;51.678;5.806;2022-10-16T09:55:51;6.32;;;2.45;;
62572;SDS011;48626;51.678;5.806;2022-10-16T09:58:20;14.13;;;3.03;;
62572;SDS011;48626;51.678;5.806;2022-10-16T10:00:52;9.02;;;2.75;;
62572;SDS011;48626;51.678;5.806;2022-10-16T10:03:40;9.32;;;2.70;;
62572;SDS011;48626;51.678;5.806;2022-10-16T10:06:13;9.02;;;2.97;;
62572;SDS011;48626;51.678;5.806;2022-10-16T10:08:55;7.25;;;2.50;;
62572;SDS011;48626;51.678;5.806;2022-10-16T10:11:38;10.80;;;2.85;;
62572;SDS011;48626;51.678;5.806;2022-10-16T10:14:20;13.93;;;2.83;;
62572;SDS011;48626;51.678;5.806;2022-10-16T10:16:46;11.63;;;2.95;;
62572;SDS011;48626;51.678;5.806;2022-10-16T10:19:17;7.90;;;3.03;;
62572;SDS011;48626;51.678;5.806;2022-10-16T10:21:44;9.18;;;2.92;;
62572;SDS011;48626;51.678;5.806;2022-10-16T10:24:11;8.93;;;2.75;;
62572;SDS011;48626;51.678;5.806;2022-10-16T10:26:38;16.00;;;2.92;;
62572;SDS011;48626;51.678;5.806;2022-10-16T10:29:27;9.27;;;2.92;;
62572;SDS011;48626;51.678;5.806;2022-10-16T10:32:27;12.27;;;3.13;;
62572;SDS011;48626;51.678;5.806;2022-10-16T10:37:28;14.75;;;3.10;;
62572;SDS011;48626;51.678;5.806;2022-10-16T10:43:21;11.25;;;2.90;;
62572;SDS011;48626;51.678;5.806;2022-10-16T10:46:02;11.10;;;3.00;;
62572;SDS011;48626;51.678;5.806;2022-10-16T10:54:14;9.43;;;2.95;;
62572;SDS011;48626;51.678;5.806;2022-10-16T10:59:30;14.88;;;3.35;;
62572;SDS011;48626;51.678;5.806;2022-10-16T11:13:21;12.45;;;3.20;;
62572;SDS011;48626;51.678;5.806;2022-10-16T11:15:48;14.20;;;3.47;;
62572;SDS011;48626;51.678;5.806;2022-10-16T11:18:20;13.95;;;3.25;;
62572;SDS011;48626;51.678;5.806;2022-10-16T11:20:57;9.48;;;3.13;;
62572;SDS011;48626;51.678;5.806;2022-10-16T11:23:37;10.23;;;3.00;;
62572;SDS011;48626;51.678;5.806;2022-10-16T11:26:12;13.90;;;3.42;;
62572;SDS011;48626;51.678;5.806;2022-10-16T11:28:49;13.68;;;3.17;;
62572;SDS011;48626;51.678;5.806;2022-10-16T11:31:22;11.75;;;3.05;;
62572;SDS011;48626;51.678;5.806;2022-10-16T11:36:48;11.60;;;3.30;;
62572;SDS011;48626;51.678;5.806;2022-10-16T11:39:36;10.23;;;2.80;;
62572;SDS011;48626;51.678;5.806;2022-10-16T11:42:07;12.75;;;3.33;;
62572;SDS011;48626;51.678;5.806;2022-10-16T11:47:34;13.15;;;3.40;;
62572;SDS011;48626;51.678;5.806;2022-10-16T11:50:24;10.77;;;3.10;;
62572;SDS011;48626;51.678;5.806;2022-10-16T11:55:39;11.77;;;2.80;;
62572;SDS011;48626;51.678;5.806;2022-10-16T11:58:07;12.35;;;3.13;;
62572;SDS011;48626;51.678;5.806;2022-10-16T12:00:43;12.63;;;3.10;;
62572;SDS011;48626;51.678;5.806;2022-10-16T12:03:22;17.63;;;3.47;;
62572;SDS011;48626;51.678;5.806;2022-10-16T12:09:14;13.27;;;3.50;;
62572;SDS011;48626;51.678;5.806;2022-10-16T12:11:54;12.77;;;3.30;;
62572;SDS011;48626;51.678;5.806;2022-10-16T12:14:22;15.32;;;4.40;;
62572;SDS011;48626;51.678;5.806;2022-10-16T12:16:58;9.85;;;2.70;;
62572;SDS011;48626;51.678;5.806;2022-10-16T12:19:26;12.75;;;3.03;;
62572;SDS011;48626;51.678;5.806;2022-10-16T12:21:56;10.55;;;3.17;;
62572;SDS011;48626;51.678;5.806;2022-10-16T12:24:39;9.90;;;2.58;;
62572;SDS011;48626;51.678;5.806;2022-10-16T12:29:54;11.70;;;3.10;;
62572;SDS011;48626;51.678;5.806;2022-10-16T12:32:26;12.35;;;3.30;;
62572;SDS011;48626;51.678;5.806;2022-10-16T12:35:16;16.52;;;3.40;;
62572;SDS011;48626;51.678;5.806;2022-10-16T12:37:45;12.82;;;3.38;;
62572;SDS011;48626;51.678;5.806;2022-10-16T12:40:33;13.43;;;3.15;;
62572;SDS011;48626;51.678;5.806;2022-10-16T12:42:59;9.70;;;3.20;;
62572;SDS011;48626;51.678;5.806;2022-10-16T12:45:35;16.48;;;3.20;;
62572;SDS011;48626;51.678;5.806;2022-10-16T12:48:02;16.35;;;3.40;;
62572;SDS011;48626;51.678;5.806;2022-10-16T12:50:43;11.02;;;2.90;;
62572;SDS011;48626;51.678;5.806;2022-10-16T12:53:22;13.65;;;3.50;;
62572;SDS011;48626;51.678;5.806;2022-10-16T12:58:33;9.52;;;2.92;;
62572;SDS011;48626;51.678;5.806;2022-10-16T13:04:05;14.35;;;3.03;;
62572;SDS011;48626;51.678;5.806;2022-10-16T13:10:02;10.18;;;2.85;;
62572;SDS011;48626;51.678;5.806;2022-10-16T13:15:38;13.95;;;2.80;;
62572;SDS011;48626;51.678;5.806;2022-10-16T13:26:21;13.27;;;2.88;;
62572;SDS011;48626;51.678;5.806;2022-10-16T13:28:52;7.47;;;2.33;;
62572;SDS011;48626;51.678;5.806;2022-10-16T13:31:21;9.60;;;2.55;;
62572;SDS011;48626;51.678;5.806;2022-10-16T13:33:52;11.70;;;2.50;;
62572;SDS011;48626;51.678;5.806;2022-10-16T13:36:21;8.30;;;2.50;;
62572;SDS011;48626;51.678;5.806;2022-10-16T13:38:50;11.65;;;3.22;;
62572;SDS011;48626;51.678;5.806;2022-10-16T13:44:27;7.70;;;2.38;;
62572;SDS011;48626;51.678;5.806;2022-10-16T13:47:02;9.85;;;2.90;;
62572;SDS011;48626;51.678;5.806;2022-10-16T13:49:28;11.00;;;2.78;;
62572;SDS011;48626;51.678;5.806;2022-10-16T13:51:54;10.30;;;2.70;;
62572;SDS011;48626;51.678;5.806;2022-10-16T13:54:21;7.13;;;2.50;;
62572;SDS011;48626;51.678;5.806;2022-10-16T13:56:47;7.13;;;2.88;;
62572;SDS011;48626;51.678;5.806;2022-10-16T14:01:59;11.52;;;2.90;;
62572;SDS011;48626;51.678;5.806;2022-10-16T14:04:32;8.02;;;2.35;;
62572;SDS011;48626;51.678;5.806;2022-10-16T14:06:58;6.45;;;2.35;;
62572;SDS011;48626;51.678;5.806;2022-10-16T14:09:29;6.72;;;2.33;;
62572;SDS011;48626;51.678;5.806;2022-10-16T14:12:09;9.73;;;2.80;;
62572;SDS011;48626;51.678;5.806;2022-10-16T14:14:43;6.03;;;2.50;;
62572;SDS011;48626;51.678;5.806;2022-10-16T14:17:22;8.10;;;2.42;;
62572;SDS011;48626;51.678;5.806;2022-10-16T14:19:51;9.73;;;2.40;;
62572;SDS011;48626;51.678;5.806;2022-10-16T14:25:24;13.23;;;2.75;;
62572;SDS011;48626;51.678;5.806;2022-10-16T14:30:34;10.20;;;2.60;;
62572;SDS011;48626;51.678;5.806;2022-10-16T14:33:02;9.75;;;2.75;;
62572;SDS011;48626;51.678;5.806;2022-10-16T14:35:33;9.27;;;2.47;;
62572;SDS011;48626;51.678;5.806;2022-10-16T14:38:01;10.73;;;3.17;;
62572;SDS011;48626;51.678;5.806;2022-10-16T14:40:29;10.57;;;3.05;;
62572;SDS011;48626;51.678;5.806;2022-10-16T14:42:57;10.38;;;2.90;;
62572;SDS011;48626;51.678;5.806;2022-10-16T14:45:24;8.95;;;2.50;;
62572;SDS011;48626;51.678;5.806;2022-10-16T14:48:03;8.60;;;2.50;;
62572;SDS011;48626;51.678;5.806;2022-10-16T14:50:38;6.85;;;2.35;;
62572;SDS011;48626;51.678;5.806;2022-10-16T14:53:08;10.27;;;3.00;;
62572;SDS011;48626;51.678;5.806;2022-10-16T14:55:37;10.10;;;3.10;;
62572;SDS011;48626;51.678;5.806;2022-10-16T14:58:05;9.98;;;2.80;;
62572;SDS011;48626;51.678;5.806;2022-10-16T15:00:31;8.57;;;3.30;;
62572;SDS011;48626;51.678;5.806;2022-10-16T15:02:56;9.43;;;2.88;;
62572;SDS011;48626;51.678;5.806;2022-10-16T15:05:23;9.88;;;2.90;;
62572;SDS011;48626;51.678;5.806;2022-10-16T15:07:51;10.20;;;3.13;;
62572;SDS011;48626;51.678;5.806;2022-10-16T15:10:18;8.00;;;2.97;;
62572;SDS011;48626;51.678;5.806;2022-10-16T15:12:45;10.35;;;3.03;;
62572;SDS011;48626;51.678;5.806;2022-10-16T15:17:49;11.40;;;2.60;;
62572;SDS011;48626;51.678;5.806;2022-10-16T15:20:17;10.40;;;3.40;;
62572;SDS011;48626;51.678;5.806;2022-10-16T15:22:43;11.90;;;3.40;;
62572;SDS011;48626;51.678;5.806;2022-10-16T15:28:00;19.40;;;3.40;;
62572;SDS011;48626;51.678;5.806;2022-10-16T15:30:27;8.70;;;2.85;;
62572;SDS011;48626;51.678;5.806;2022-10-16T15:32:53;8.25;;;2.53;;
62572;SDS011;48626;51.678;5.806;2022-10-16T15:35:19;6.25;;;2.38;;
62572;SDS011;48626;51.678;5.806;2022-10-16T15:37:46;7.60;;;2.78;;
62572;SDS011;48626;51.678;5.806;2022-10-16T15:40:13;5.40;;;2.80;;
62572;SDS011;48626;51.678;5.806;2022-10-16T15:42:39;13.18;;;5.28;;
62572;SDS011;48626;51.678;5.806;2022-10-16T15:45:05;12.25;;;3.53;;
62572;SDS011;48626;51.678;5.806;2022-10-16T15:47:31;8.43;;;3.08;;
62572;SDS011;48626;51.678;5.806;2022-10-16T15:49:57;7.15;;;2.65;;
62572;SDS011;48626;51.678;5.806;2022-10-16T15:52:23;6.43;;;2.50;;
62572;SDS011;48626;51.678;5.806;2022-10-16T15:54:49;4.28;;;2.25;;
62572;SDS011;48626;51.678;5.806;2022-10-16T15:57:15;6.55;;;2.55;;
62572;SDS011;48626;51.678;5.806;2022-10-16T15:59:40;9.27;;;3.17;;
62572;SDS011;48626;51.678;5.806;2022-10-16T16:02:07;6.97;;;2.97;;
62572;SDS011;48626;51.678;5.806;2022-10-16T16:04:33;8.65;;;2.90;;
62572;SDS011;48626;51.678;5.806;2022-10-16T16:06:59;5.22;;;2.70;;
62572;SDS011;48626;51.678;5.806;2022-10-16T16:09:26;6.90;;;2.63;;
62572;SDS011;48626;51.678;5.806;2022-10-16T16:11:54;7.70;;;3.10;;
62572;SDS011;48626;51.678;5.806;2022-10-16T16:14:19;7.13;;;3.85;;
62572;SDS011;48626;51.678;5.806;2022-10-16T16:16:45;8.93;;;3.50;;
62572;SDS011;48626;51.678;5.806;2022-10-16T16:19:11;13.75;;;5.60;;
62572;SDS011;48626;51.678;5.806;2022-10-16T16:21:37;9.20;;;4.32;;
62572;SDS011;48626;51.678;5.806;2022-10-16T16:24:03;10.18;;;3.75;;
62572;SDS011;48626;51.678;5.806;2022-10-16T16:26:33;9.30;;;4.20;;
62572;SDS011;48626;51.678;5.806;2022-10-16T16:29:01;9.27;;;3.30;;
62572;SDS011;48626;51.678;5.806;2022-10-16T16:31:29;9.80;;;3.80;;
62572;SDS011;48626;51.678;5.806;2022-10-16T16:33:56;7.97;;;3.28;;
62572;SDS011;48626;51.678;5.806;2022-10-16T16:36:23;9.27;;;3.13;;
62572;SDS011;48626;51.678;5.806;2022-10-16T16:38:50;7.65;;;3.60;;
62572;SDS011;48626;51.678;5.806;2022-10-16T16:41:17;7.70;;;3.90;;
62572;SDS011;48626;51.678;5.806;2022-10-16T16:43:44;8.15;;;3.70;;
62572;SDS011;48626;51.678;5.806;2022-10-16T16:46:10;10.70;;;3.55;;
62572;SDS011;48626;51.678;5.806;2022-10-16T16:48:36;9.73;;;3.80;;
62572;SDS011;48626;51.678;5.806;2022-10-16T16:51:06;11.18;;;3.38;;
62572;SDS011;48626;51.678;5.806;2022-10-16T16:53:34;7.70;;;3.50;;